Flight Track Log - Related Links

Times and Time Zones

All times are in EDT time to prevent confusion due to time zone crossing. See the SKW4664 flight status page for this flight to view local times or setup timezone preferences in your user account.

Time Position Orientation Groundspeed Altitude Reporting Facility
EDT Latitude Longitude Course Direction KTS MPH feet Rate Location/Type
Mon 10:39:28 AM 43.1783 -89.3639 285° West 161 185 2,700  Level Chicago Center
Mon 10:40:30 AM 43.1897 -89.4411 281° West 203 234 4,400 2,016 Climbing Chicago Center
Mon 10:41:00 AM 43.2136 -89.7240 295° West  Level FlightAware Approximate
Mon 10:41:33 AM 43.2042 -89.5367 282° West 242 278 6,900  Level Chicago Center
Mon 10:42:00 AM 43.2322 -89.8576 280° West  Level FlightAware Approximate
Mon 10:42:35 AM 43.2208 -89.6489 282° West 255 293 10,000  Level Chicago Center
Mon 10:43:00 AM 43.2614 -89.9879 288° West  Level FlightAware Approximate
Mon 10:43:37 AM 43.2367 -89.7550 282° West 279 321 12,000  Level Chicago Center
Mon 10:44:00 AM 43.2839 -90.1196 285° West  Level FlightAware Approximate
Mon 10:44:39 AM 43.2525 -89.8675 281° West 296 341 14,600  Level Chicago Center
Mon 10:45:41 AM 43.2703 -89.9786 282° West 297 342 16,400 1,645 Climbing Chicago Center
Mon 10:46:43 AM 43.2872 -90.0922 282° West 302 348 18,000 1,694 Climbing Chicago Center
Mon 10:47:45 AM 43.3114 -90.2269 284° West 310 357 19,900 1,403 Climbing Chicago Center
Mon 10:48:47 AM 43.3344 -90.3253 288° West 318 366 20,900 1,016 Climbing Chicago Center
Mon 10:49:49 AM 43.3644 -90.4700 286° West 329 379 22,000 532 Climbing Chicago Center
Mon 10:50:51 AM 43.3906 -90.6014 285° West 353 406 22,000  Level Chicago Center
Mon 10:51:53 AM 43.4194 -90.7406 286° West 376 433 22,000  Level Chicago Center
Mon 10:52:56 AM 43.4475 -90.8814 285° West 385 443 22,000  Level Chicago Center
Mon 10:53:58 AM 43.4831 -91.0553 286° West 398 458 22,000  Level Chicago Center
Mon 10:55:00 AM 43.5125 -91.2014 286° West 402 463 22,000  Level Chicago Center
Mon 10:56:02 AM 43.5411 -91.3464 285° West 399 459 22,000  Level Chicago Center
Mon 10:57:04 AM 43.5708 -91.4900 286° West 397 457 22,000  Level Chicago Center
Mon 10:58:06 AM 43.5989 -91.6322 285° West 392 451 22,000  Level Chicago Center
Mon 10:59:08 AM 43.6306 -91.8031 284° West 389 448 22,000 -97 Level Chicago Center
Mon 11:00:10 AM 43.6303 -91.9283 270° West 337 388 21,800  Descending Chicago Center
Mon 11:01:13 AM 43.6297 -92.0422 270° West 307 353 22,000 97 Climbing Chicago Center
Mon 11:02:14 AM 43.6292 -92.1586 270° West 306 352 22,000  Level Chicago Center
Mon 11:03:22 AM 43.6311 -92.2997 271° West 314 361 22,000  Level Minneapolis Center
Mon 11:04:24 AM 43.6319 -92.4183 271° West 313 360 22,000  Level Minneapolis Center
Mon 11:05:26 AM 43.6333 -92.5403 271° West 319 367 22,000  Level Minneapolis Center
Mon 11:06:28 AM 43.6325 -92.6997 270° West 345 397 22,000  Level Minneapolis Center
Mon 11:07:30 AM 43.6319 -92.8333 270° West 350 403 22,000  Level Minneapolis Center
Mon 11:08:32 AM 43.6317 -92.9636 270° West 347 399 22,000  Level Minneapolis Center
Mon 11:09:34 AM 43.7019 -93.0361 323° Northwest 344 396 22,000 -48 Level Minneapolis Center
Mon 11:10:36 AM 43.7950 -93.0681 346° North 347 399 21,900 -1,392 Descending Minneapolis Center
Mon 11:11:39 AM 43.8992 -93.1058 345° North 349 402 19,100 -2,592 Descending Minneapolis Center
Mon 11:12:41 AM 43.9911 -93.1397 345° North 345 397 16,500 -2,758 Descending Minneapolis Center
Mon 11:13:43 AM 44.0994 -93.1758 347° North 337 388 13,400 -2,661 Descending Minneapolis Center
Mon 11:14:45 AM 44.1861 -93.2061 346° North 321 369 11,000 -1,645 Descending Minneapolis Center
Mon 11:15:47 AM 44.2639 -93.2183 354° North 283 326 10,000 -484 Descending Minneapolis Center
Mon 11:16:49 AM 44.3417 -93.2106 North 280 322 10,000 -726 Level Minneapolis Center
Mon 11:17:51 AM 44.4181 -93.2075 North 274 315 8,500 -1,452 Descending Minneapolis Center
Mon 11:18:53 AM 44.4922 -93.2047 North 269 310 7,000 -1,113 Descending Minneapolis Center
Mon 11:19:55 AM 44.5783 -93.2008 North 261 300 6,200 -1,258 Descending Minneapolis Center
Mon 11:20:57 AM 44.6472 -93.1986 North 252 290 4,400 -1,113 Descending Minneapolis Center
Mon 11:21:59 AM 44.7114 -93.1981 360° North 229 264 3,900 -484 Descending Minneapolis Center

Login

Don't have an account? Register now (free) for customized features, flight alerts, and more!